Time,TemperatureF,DewpointF,PressureIn,WindDirection,WindDirectionDegrees,WindSpeedMPH,WindSpeedGustMPH,Humidity,HourlyPrecipIn,Conditions,Clouds,dailyrainin,SoftwareType,DateUTC
2013-01-15 00:02:00,29.7,22.0,30.25,NNW,327,5.0,7.0,73,0.00,,,0.13,weatherlink.com 1.10,2013-01-15 05:02:00,
2013-01-15 00:17:00,29.7,22.0,30.26,NW,319,6.0,12.0,74,0.00,,,0.00,weatherlink.com 1.10,2013-01-15 05:17:00,
2013-01-15 00:32:00,29.6,22.0,30.26,WNW,284,4.0,9.0,74,0.00,,,0.00,weatherlink.com 1.10,2013-01-15 05:32:00,
2013-01-15 00:47:00,29.4,22.0,30.26,North,355,3.0,9.0,74,0.00,,,0.00,weatherlink.com 1.10,2013-01-15 05:47:00,
2013-01-15 01:02:00,29.3,22.0,30.23,NNW,327,0.0,7.0,75,0.00,,,0.00,weatherlink.com 1.10,2013-01-15 06:02:00,
2013-01-15 01:17:00,29.2,22.0,30.21,NW,323,1.0,6.0,75,0.00,,,0.00,weatherlink.com 1.10,2013-01-15 06:17:00,
2013-01-15 01:32:00,29.2,23.0,30.23,NNW,332,5.0,10.0,76,0.00,,,0.00,weatherlink.com 1.10,2013-01-15 06:32:00,
2013-01-15 01:47:00,29.1,22.0,30.22,North,349,5.0,7.0,76,0.00,,,0.00,weatherlink.com 1.10,2013-01-15 06:47:00,
2013-01-15 02:02:00,29.0,22.0,30.23,WSW,253,5.0,8.0,76,0.00,,,0.00,weatherlink.com 1.10,2013-01-15 07:02:00,
2013-01-15 02:17:00,28.9,22.0,30.23,NNW,329,5.0,8.0,76,0.00,,,0.00,weatherlink.com 1.10,2013-01-15 07:17:00,
2013-01-15 02:32:00,28.9,22.0,30.22,NW,307,5.0,7.0,76,0.00,,,0.00,weatherlink.com 1.10,2013-01-15 07:32:00,
2013-01-15 02:47:00,28.8,22.0,30.20,West,266,5.0,9.0,75,0.00,,,0.00,weatherlink.com 1.10,2013-01-15 07:47:00,
2013-01-15 03:02:00,28.7,22.0,30.21,WSW,254,5.0,9.0,75,0.00,,,0.00,weatherlink.com 1.10,2013-01-15 08:02:00,
2013-01-15 03:17:00,28.6,21.0,30.21,WNW,289,5.0,10.0,74,0.00,,,0.00,weatherlink.com 1.10,2013-01-15 08:17:00,
2013-01-15 03:32:00,28.3,21.0,30.22,WNW,298,3.0,7.0,74,0.00,,,0.00,weatherlink.com 1.10,2013-01-15 08:32:00,
2013-01-15 03:47:00,27.9,21.0,30.21,West,277,1.0,8.0,76,0.00,,,0.00,weatherlink.com 1.10,2013-01-15 08:47:00,
2013-01-15 04:02:00,27.4,21.0,30.21,NW,308,6.0,6.0,76,0.00,,,0.00,weatherlink.com 1.10,2013-01-15 09:02:00,
2013-01-15 04:17:00,27.1,21.0,30.20,NW,323,2.0,5.0,78,0.00,,,0.00,weatherlink.com 1.10,2013-01-15 09:17:00,
2013-01-15 04:32:00,26.7,21.0,30.19,NW,309,3.0,6.0,78,0.00,,,0.00,weatherlink.com 1.10,2013-01-15 09:32:00,
2013-01-15 04:47:00,26.5,21.0,30.20,NNW,340,2.0,6.0,79,0.00,,,0.00,weatherlink.com 1.10,2013-01-15 09:47:00,
2013-01-15 05:02:00,26.8,21.0,30.22,West,272,3.0,9.0,79,0.00,,,0.00,weatherlink.com 1.10,2013-01-15 10:02:00,
2013-01-15 05:17:00,27.2,21.0,30.23,NW,305,8.0,9.0,78,0.00,,,0.00,weatherlink.com 1.10,2013-01-15 10:17:00,
2013-01-15 05:33:00,27.2,21.0,30.23,West,273,2.0,9.0,78,0.00,,,0.00,weatherlink.com 1.10,2013-01-15 10:33:00,
2013-01-15 05:48:00,27.4,21.0,30.23,North,351,3.0,7.0,78,0.00,,,0.00,weatherlink.com 1.10,2013-01-15 10:48:00,
2013-01-15 06:03:00,27.6,21.0,30.24,South,169,3.0,8.0,76,0.00,,,0.00,weatherlink.com 1.10,2013-01-15 11:03:00,
2013-01-15 06:18:00,27.7,21.0,30.25,West,267,4.0,9.0,76,0.00,,,0.00,weatherlink.com 1.10,2013-01-15 11:18:00,
2013-01-15 06:33:00,27.6,21.0,30.25,NNW,330,1.0,12.0,76,0.00,,,0.00,weatherlink.com 1.10,2013-01-15 11:33:00,
2013-01-15 06:48:00,27.7,21.0,30.25,NW,321,5.0,8.0,75,0.00,,,0.00,weatherlink.com 1.10,2013-01-15 11:48:00,
2013-01-15 07:03:00,27.7,21.0,30.26,SW,232,2.0,8.0,75,0.00,,,0.00,weatherlink.com 1.10,2013-01-15 12:03:00,
2013-01-15 07:18:00,27.8,21.0,30.26,NW,306,3.0,8.0,74,0.00,,,0.00,weatherlink.com 1.10,2013-01-15 12:18:00,
2013-01-15 07:33:00,27.7,20.0,30.27,North,355,3.0,9.0,73,0.00,,,0.00,weatherlink.com 1.10,2013-01-15 12:33:00,
2013-01-15 07:48:00,27.7,20.0,30.27,North,360,1.0,8.0,73,0.00,,,0.00,weatherlink.com 1.10,2013-01-15 12:48:00,
2013-01-15 08:03:00,27.9,20.0,30.27,NW,312,5.0,7.0,73,0.00,,,0.00,weatherlink.com 1.10,2013-01-15 13:03:00,
2013-01-15 08:18:00,28.0,20.0,30.28,West,276,2.0,7.0,73,0.00,,,0.00,weatherlink.com 1.10,2013-01-15 13:18:00,
2013-01-15 08:33:00,28.1,20.0,30.30,WNW,284,2.0,6.0,73,0.00,,,0.00,weatherlink.com 1.10,2013-01-15 13:33:00,
2013-01-15 08:48:00,28.4,21.0,30.31,NNE,12,0.0,5.0,73,0.00,,,0.00,weatherlink.com 1.10,2013-01-15 13:48:00,
2013-01-15 09:03:00,28.8,20.0,30.32,West,279,4.0,5.0,71,0.00,,,0.00,weatherlink.com 1.10,2013-01-15 14:03:00,
2013-01-15 09:18:00,29.1,21.0,30.32,West,263,5.0,6.0,71,0.00,,,0.00,weatherlink.com 1.10,2013-01-15 14:18:00,
2013-01-15 09:33:00,29.1,20.0,30.32,NE,51,1.0,6.0,70,0.00,,,0.00,weatherlink.com 1.10,2013-01-15 14:33:00,
2013-01-15 09:48:00,30.0,21.0,30.31,WSW,258,2.0,4.0,70,0.00,,,0.00,weatherlink.com 1.10,2013-01-15 14:48:00,
2013-01-15 10:03:00,30.0,21.0,30.32,West,280,3.0,7.0,69,0.00,,,0.00,weatherlink.com 1.10,2013-01-15 15:03:00,
2013-01-15 10:18:00,29.7,20.0,30.31,WNW,288,1.0,7.0,68,0.00,,,0.00,weatherlink.com 1.10,2013-01-15 15:18:00,
2013-01-15 10:33:00,29.8,21.0,30.31,West,273,1.0,5.0,69,0.00,,,0.00,weatherlink.com 1.10,2013-01-15 15:33:00,
2013-01-15 10:48:00,30.2,20.0,30.30,WNW,300,3.0,6.0,67,0.00,,,0.00,weatherlink.com 1.10,2013-01-15 15:48:00,
2013-01-15 11:03:00,30.2,20.0,30.30,SSW,203,2.0,4.0,67,0.00,,,0.00,weatherlink.com 1.10,2013-01-15 16:03:00,
2013-01-15 11:18:00,30.6,21.0,30.30,NNW,332,2.0,6.0,67,0.00,,,0.00,weatherlink.com 1.10,2013-01-15 16:18:00,
2013-01-15 11:33:00,30.7,21.0,30.30,NW,304,4.0,6.0,66,0.00,,,0.00,weatherlink.com 1.10,2013-01-15 16:33:00,
2013-01-15 11:48:00,30.8,21.0,30.29,West,271,1.0,4.0,66,0.00,,,0.00,weatherlink.com 1.10,2013-01-15 16:48:00,
2013-01-15 12:03:00,31.1,21.0,30.29,South,181,0.0,4.0,65,0.00,,,0.00,weatherlink.com 1.10,2013-01-15 17:03:00,
2013-01-15 12:18:00,31.5,20.0,30.29,NNW,329,5.0,7.0,63,0.00,,,0.00,weatherlink.com 1.10,2013-01-15 17:18:00,
2013-01-15 12:33:00,31.7,21.0,30.29,NW,318,5.0,9.0,64,0.00,,,0.00,weatherlink.com 1.10,2013-01-15 17:33:00,
2013-01-15 12:48:00,31.9,20.0,30.27,West,271,4.0,6.0,62,0.00,,,0.00,weatherlink.com 1.10,2013-01-15 17:48:00,
2013-01-15 13:03:00,32.2,21.0,30.26,WSW,243,0.0,4.0,63,0.00,,,0.00,weatherlink.com 1.10,2013-01-15 18:03:00,
2013-01-15 13:18:00,33.0,21.0,30.25,North,360,1.0,7.0,61,0.00,,,0.00,weatherlink.com 1.10,2013-01-15 18:18:00,
2013-01-15 13:33:00,33.4,21.0,30.25,West,263,3.0,6.0,60,0.00,,,0.00,weatherlink.com 1.10,2013-01-15 18:33:00,
2013-01-15 13:48:00,33.4,21.0,30.26,SE,145,1.0,8.0,60,0.00,,,0.00,weatherlink.com 1.10,2013-01-15 18:48:00,
2013-01-15 14:03:00,33.2,21.0,30.25,SW,226,2.0,5.0,60,0.00,,,0.00,weatherlink.com 1.10,2013-01-15 19:03:00,
2013-01-15 14:18:00,33.0,21.0,30.23,West,271,1.0,2.0,61,0.00,,,0.00,weatherlink.com 1.10,2013-01-15 19:18:00,
2013-01-15 14:33:00,32.5,20.0,30.24,WNW,283,0.0,3.0,61,0.00,,,0.00,weatherlink.com 1.10,2013-01-15 19:33:00,
2013-01-15 14:48:00,32.6,20.0,30.24,WNW,286,0.0,6.0,61,0.00,,,0.00,weatherlink.com 1.10,2013-01-15 19:48:00,
2013-01-15 15:03:00,32.5,21.0,30.24,West,276,1.0,5.0,62,0.00,,,0.00,weatherlink.com 1.10,2013-01-15 20:03:00,
2013-01-15 15:18:00,32.5,21.0,30.25,WNW,299,0.0,4.0,62,0.00,,,0.00,weatherlink.com 1.10,2013-01-15 20:18:00,
2013-01-15 15:33:00,32.5,21.0,30.25,NW,311,2.0,5.0,62,0.00,,,0.00,weatherlink.com 1.10,2013-01-15 20:33:00,
2013-01-15 15:49:00,32.3,20.0,30.26,NW,311,1.0,5.0,62,0.00,,,0.00,weatherlink.com 1.10,2013-01-15 20:49:00,
2013-01-15 16:19:00,31.9,20.0,30.26,NW,325,4.0,6.0,63,0.00,,,0.00,weatherlink.com 1.10,2013-01-15 21:19:00,
2013-01-15 16:34:00,31.7,21.0,30.26,NNW,332,2.0,4.0,64,0.00,,,0.00,weatherlink.com 1.10,2013-01-15 21:34:00,
2013-01-15 16:49:00,31.5,21.0,30.25,NW,311,0.0,3.0,65,0.00,,,0.00,weatherlink.com 1.10,2013-01-15 21:49:00,
2013-01-15 17:04:00,31.1,21.0,30.26,NNW,331,1.0,3.0,65,0.00,,,0.00,weatherlink.com 1.10,2013-01-15 22:04:00,
2013-01-15 17:19:00,30.8,21.0,30.26,North,360,2.0,3.0,66,0.00,,,0.00,weatherlink.com 1.10,2013-01-15 22:19:00,
2013-01-15 17:49:00,30.3,21.0,30.27,NW,317,2.0,2.0,69,0.00,,,0.00,weatherlink.com 1.10,2013-01-15 22:49:00,
2013-01-15 18:04:00,30.1,21.0,30.27,West,281,0.0,3.0,69,0.00,,,0.00,weatherlink.com 1.10,2013-01-15 23:04:00,
2013-01-15 18:19:00,29.8,21.0,30.27,NW,309,0.0,5.0,69,0.00,,,0.00,weatherlink.com 1.10,2013-01-15 23:19:00,
2013-01-15 18:34:00,29.7,21.0,30.27,SW,223,1.0,4.0,69,0.00,,,0.00,weatherlink.com 1.10,2013-01-15 23:34:00,
2013-01-15 18:49:00,29.7,21.0,30.27,West,264,1.0,5.0,69,0.00,,,0.00,weatherlink.com 1.10,2013-01-15 23:49:00,
2013-01-15 19:19:00,29.4,21.0,30.27,NNW,336,2.0,4.0,70,0.00,,,0.00,weatherlink.com 1.10,2013-01-16 00:19:00,
2013-01-15 19:34:00,29.3,21.0,30.26,WNW,302,0.0,5.0,70,0.00,,,0.00,weatherlink.com 1.10,2013-01-16 00:34:00,
2013-01-15 19:49:00,29.2,21.0,30.25,North,5,2.0,4.0,70,0.00,,,0.00,weatherlink.com 1.10,2013-01-16 00:49:00,
2013-01-15 20:04:00,29.0,21.0,30.24,NNW,338,3.0,4.0,71,0.00,,,0.00,weatherlink.com 1.10,2013-01-16 01:04:00,
2013-01-15 20:19:00,29.0,21.0,30.26,NNW,333,3.0,4.0,71,0.00,,,0.00,weatherlink.com 1.10,2013-01-16 01:19:00,
2013-01-15 20:34:00,28.8,21.0,30.24,WNW,303,1.0,6.0,72,0.00,,,0.00,weatherlink.com 1.10,2013-01-16 01:34:00,
2013-01-15 20:49:00,28.7,21.0,30.24,North,355,2.0,6.0,72,0.00,,,0.00,weatherlink.com 1.10,2013-01-16 01:49:00,
2013-01-15 21:04:00,28.5,20.0,30.24,NW,324,2.0,5.0,71,0.00,,,0.00,weatherlink.com 1.10,2013-01-16 02:04:00,
2013-01-15 21:19:00,28.4,20.0,30.23,NNW,331,1.0,5.0,71,0.00,,,0.00,weatherlink.com 1.10,2013-01-16 02:19:00,
2013-01-15 21:34:00,28.3,20.0,30.22,NW,312,1.0,4.0,72,0.00,,,0.00,weatherlink.com 1.10,2013-01-16 02:34:00,
2013-01-15 21:49:00,28.2,21.0,30.22,NW,324,3.0,4.0,73,0.00,,,0.00,weatherlink.com 1.10,2013-01-16 02:49:00,
2013-01-15 22:04:00,28.1,20.0,30.22,NNW,346,1.0,4.0,73,0.00,,,0.00,weatherlink.com 1.10,2013-01-16 03:04:00,
2013-01-15 22:19:00,28.0,20.0,30.22,North,360,0.0,4.0,73,0.00,,,0.00,weatherlink.com 1.10,2013-01-16 03:19:00,
2013-01-15 22:34:00,28.0,20.0,30.22,NW,319,3.0,5.0,73,0.00,,,0.00,weatherlink.com 1.10,2013-01-16 03:34:00,
2013-01-15 22:49:00,27.8,21.0,30.21,NNE,18,0.0,7.0,74,0.00,,,0.00,weatherlink.com 1.10,2013-01-16 03:49:00,
2013-01-15 23:04:00,27.9,21.0,30.22,NW,317,2.0,5.0,74,0.00,,,0.00,weatherlink.com 1.10,2013-01-16 04:04:00,
2013-01-15 23:19:00,27.9,21.0,30.22,WNW,297,3.0,7.0,74,0.00,,,0.00,weatherlink.com 1.10,2013-01-16 04:19:00,
2013-01-15 23:34:00,28.0,21.0,30.22,NW,308,3.0,4.0,74,0.00,,,0.00,weatherlink.com 1.10,2013-01-16 04:34:00,
2013-01-15 23:49:00,28.1,21.0,30.22,North,351,1.0,3.0,74,0.00,,,0.00,weatherlink.com 1.10,2013-01-16 04:49:00,